Time;durP1;ratioP1;P1;durP2;ratioP2;P2;SDS_P1;SDS_P2;PMS_P1;PMS_P2;Temp;Humidity;BMP_temperature;BMP_pressure;BME280_temperature;BME280_humidity;BME280_pressure;Samples;Min_cycle;Max_cycle;Signal;HPM_P1;HPM_P2
2021/06/16 00:01:10;;;;;;;6.08;4.35;;;;;;;21.20;62.69;100385.00;;;;-51
2021/06/16 00:04:09;;;;;;;5.53;4.47;;;;;;;21.19;62.74;100379.89;;;;-50
2021/06/16 00:07:10;;;;;;;5.94;4.22;;;;;;;21.19;62.60;100375.33;;;;-50
2021/06/16 00:10:09;;;;;;;4.78;4.28;;;;;;;21.18;62.74;100374.73;;;;-51
2021/06/16 00:13:10;;;;;;;5.75;4.47;;;;;;;21.18;62.70;100377.52;;;;-48
2021/06/16 00:16:10;;;;;;;5.53;4.24;;;;;;;21.18;62.66;100379.06;;;;-49
2021/06/16 00:19:09;;;;;;;5.99;4.30;;;;;;;21.17;62.65;100378.27;;;;-49
2021/06/16 00:22:10;;;;;;;4.92;4.42;;;;;;;21.16;62.67;100380.69;;;;-48
2021/06/16 00:25:10;;;;;;;7.35;4.39;;;;;;;21.16;62.69;100385.42;;;;-49
2021/06/16 00:28:10;;;;;;;4.73;4.20;;;;;;;21.15;62.66;100386.58;;;;-49
2021/06/16 00:31:10;;;;;;;5.25;4.31;;;;;;;21.15;62.71;100383.48;;;;-53
2021/06/16 00:34:10;;;;;;;5.96;4.29;;;;;;;21.14;62.69;100382.56;;;;-54
2021/06/16 00:37:10;;;;;;;5.11;4.20;;;;;;;21.13;62.68;100382.75;;;;-54
2021/06/16 00:40:09;;;;;;;4.80;4.21;;;;;;;21.13;62.61;100384.05;;;;-53
2021/06/16 00:43:10;;;;;;;5.27;4.15;;;;;;;21.13;62.71;100382.75;;;;-54
2021/06/16 00:46:10;;;;;;;4.86;4.23;;;;;;;21.12;62.61;100383.47;;;;-53
2021/06/16 00:49:09;;;;;;;6.02;4.38;;;;;;;21.11;62.70;100383.25;;;;-51
2021/06/16 00:52:10;;;;;;;5.35;4.38;;;;;;;21.11;62.77;100387.80;;;;-51
2021/06/16 00:55:10;;;;;;;4.70;4.01;;;;;;;21.10;62.66;100386.81;;;;-50
2021/06/16 00:58:10;;;;;;;5.00;4.23;;;;;;;21.11;62.67;100386.34;;;;-50
2021/06/16 01:01:10;;;;;;;5.73;4.05;;;;;;;21.10;62.69;100384.12;;;;-50
2021/06/16 01:04:09;;;;;;;4.95;3.81;;;;;;;21.09;62.69;100381.69;;;;-50
2021/06/16 01:07:10;;;;;;;4.91;4.07;;;;;;;21.09;62.69;100382.10;;;;-50
2021/06/16 01:10:09;;;;;;;4.86;4.24;;;;;;;21.08;62.63;100383.98;;;;-50
2021/06/16 01:13:10;;;;;;;5.21;4.20;;;;;;;21.08;62.68;100381.92;;;;-50
2021/06/16 01:16:10;;;;;;;5.10;4.19;;;;;;;21.08;62.68;100378.75;;;;-51
2021/06/16 01:19:09;;;;;;;4.63;4.10;;;;;;;21.08;62.62;100378.19;;;;-50
2021/06/16 01:22:09;;;;;;;4.23;3.83;;;;;;;21.07;62.73;100375.50;;;;-50
2021/06/16 01:25:10;;;;;;;4.80;4.05;;;;;;;21.07;62.74;100369.55;;;;-50
2021/06/16 01:28:09;;;;;;;5.81;3.99;;;;;;;21.07;62.68;100368.17;;;;-50
2021/06/16 01:31:10;;;;;;;5.34;3.91;;;;;;;21.06;62.68;100371.77;;;;-50
2021/06/16 01:34:09;;;;;;;5.10;3.87;;;;;;;21.06;62.73;100371.26;;;;-50
2021/06/16 01:37:10;;;;;;;4.55;4.05;;;;;;;21.05;62.68;100370.86;;;;-50
2021/06/16 01:40:10;;;;;;;4.39;3.93;;;;;;;21.05;62.71;100371.67;;;;-50
2021/06/16 01:43:09;;;;;;;4.23;3.81;;;;;;;21.05;62.67;100367.03;;;;-50
2021/06/16 01:46:10;;;;;;;4.93;4.12;;;;;;;21.04;62.68;100367.05;;;;-51
2021/06/16 01:49:09;;;;;;;4.34;3.79;;;;;;;21.04;62.72;100367.38;;;;-51
2021/06/16 01:52:10;;;;;;;4.37;3.91;;;;;;;21.04;62.60;100367.67;;;;-50
2021/06/16 01:55:10;;;;;;;5.25;4.24;;;;;;;21.03;62.66;100368.26;;;;-50
2021/06/16 01:58:09;;;;;;;4.95;3.73;;;;;;;21.03;62.65;100365.48;;;;-50
2021/06/16 02:01:10;;;;;;;4.15;3.75;;;;;;;21.03;62.70;100368.50;;;;-51
2021/06/16 02:04:09;;;;;;;4.22;3.81;;;;;;;21.03;62.73;100368.75;;;;-50
2021/06/16 02:07:09;;;;;;;4.12;3.61;;;;;;;21.02;62.66;100368.81;;;;-50
2021/06/16 02:10:10;;;;;;;4.21;3.81;;;;;;;21.02;62.65;100367.60;;;;-51
2021/06/16 02:13:09;;;;;;;4.00;3.60;;;;;;;21.02;62.73;100365.48;;;;-50
2021/06/16 02:16:10;;;;;;;4.42;3.76;;;;;;;21.01;62.73;100363.77;;;;-50
2021/06/16 02:19:10;;;;;;;4.61;3.91;;;;;;;21.02;62.68;100361.89;;;;-50
2021/06/16 02:22:10;;;;;;;4.23;3.83;;;;;;;21.01;62.64;100359.37;;;;-50
2021/06/16 02:25:10;;;;;;;4.13;3.73;;;;;;;21.00;62.67;100355.97;;;;-50
2021/06/16 02:28:09;;;;;;;4.99;3.74;;;;;;;21.00;62.68;100355.81;;;;-50
2021/06/16 02:31:10;;;;;;;4.42;3.73;;;;;;;21.00;62.74;100353.50;;;;-50
2021/06/16 02:34:10;;;;;;;4.21;3.78;;;;;;;20.99;62.67;100348.55;;;;-51
2021/06/16 02:37:09;;;;;;;4.25;3.77;;;;;;;20.99;62.64;100347.73;;;;-50
2021/06/16 02:40:11;;;;;;;4.18;3.64;;;;;;;20.98;62.66;100347.02;;;;-50
2021/06/16 02:43:09;;;;;;;3.94;3.54;;;;;;;20.99;62.63;100346.35;;;;-50
2021/06/16 02:46:10;;;;;;;4.35;3.85;;;;;;;20.98;62.64;100345.52;;;;-50
2021/06/16 02:49:10;;;;;;;4.34;3.75;;;;;;;20.98;62.63;100348.08;;;;-50
2021/06/16 02:52:09;;;;;;;4.31;3.75;;;;;;;20.98;62.71;100346.99;;;;-50
2021/06/16 02:55:10;;;;;;;4.08;3.59;;;;;;;20.97;62.70;100340.97;;;;-50
2021/06/16 02:58:09;;;;;;;4.16;3.49;;;;;;;20.97;62.61;100337.15;;;;-50
2021/06/16 03:01:09;;;;;;;4.15;3.41;;;;;;;20.96;62.63;100331.53;;;;-51
2021/06/16 03:04:10;;;;;;;4.05;3.63;;;;;;;20.97;62.68;100332.98;;;;-50
2021/06/16 03:07:09;;;;;;;4.12;3.72;;;;;;;20.96;62.65;100330.81;;;;-50
2021/06/16 03:10:10;;;;;;;3.59;3.29;;;;;;;20.96;62.69;100331.21;;;;-50
2021/06/16 03:13:09;;;;;;;3.69;3.23;;;;;;;20.96;62.65;100329.50;;;;-50
2021/06/16 03:16:09;;;;;;;3.95;3.50;;;;;;;20.96;62.65;100328.28;;;;-50
2021/06/16 03:19:10;;;;;;;4.37;3.85;;;;;;;20.95;62.69;100328.42;;;;-51
2021/06/16 03:22:09;;;;;;;3.63;3.33;;;;;;;20.95;62.63;100328.42;;;;-51
2021/06/16 03:25:10;;;;;;;3.92;3.52;;;;;;;20.95;62.68;100326.16;;;;-50
2021/06/16 03:28:09;;;;;;;3.82;3.47;;;;;;;20.95;62.58;100332.91;;;;-50
2021/06/16 03:31:09;;;;;;;4.01;3.61;;;;;;;20.95;62.68;100336.42;;;;-50
2021/06/16 03:34:10;;;;;;;4.19;3.41;;;;;;;20.94;62.66;100338.39;;;;-49
2021/06/16 03:37:10;;;;;;;5.15;3.84;;;;;;;20.94;62.59;100342.78;;;;-51
2021/06/16 03:40:09;;;;;;;3.83;3.33;;;;;;;20.94;62.62;100342.22;;;;-50
2021/06/16 03:43:10;;;;;;;3.74;3.35;;;;;;;20.94;62.66;100340.97;;;;-50
2021/06/16 03:46:09;;;;;;;3.90;3.51;;;;;;;20.93;62.66;100340.33;;;;-51
2021/06/16 03:49:10;;;;;;;4.11;3.71;;;;;;;20.93;62.65;100342.69;;;;-50
2021/06/16 03:52:09;;;;;;;3.76;3.37;;;;;;;20.93;62.68;100346.84;;;;-49
2021/06/16 03:55:09;;;;;;;3.96;3.54;;;;;;;20.92;62.67;100343.02;;;;-49
2021/06/16 03:58:09;;;;;;;4.00;3.30;;;;;;;20.93;62.66;100343.91;;;;-48
2021/06/16 04:01:09;;;;;;;3.75;3.41;;;;;;;20.92;62.73;100344.25;;;;-48
2021/06/16 04:04:10;;;;;;;3.95;3.52;;;;;;;20.92;62.65;100343.11;;;;-49
2021/06/16 04:07:09;;;;;;;3.87;3.46;;;;;;;20.92;62.68;100343.58;;;;-49
2021/06/16 04:10:09;;;;;;;3.67;3.33;;;;;;;20.91;62.62;100341.06;;;;-48
2021/06/16 04:13:10;;;;;;;4.02;3.43;;;;;;;20.92;62.63;100347.16;;;;-49
2021/06/16 04:16:10;;;;;;;4.09;3.47;;;;;;;20.91;62.55;100340.66;;;;-49
2021/06/16 04:19:10;;;;;;;3.65;3.19;;;;;;;20.91;62.56;100342.28;;;;-48
2021/06/16 04:22:09;;;;;;;4.08;3.26;;;;;;;20.90;62.59;100335.55;;;;-49
2021/06/16 04:25:09;;;;;;;3.89;3.47;;;;;;;20.90;62.64;100337.16;;;;-48
2021/06/16 04:28:09;;;;;;;3.86;3.46;;;;;;;20.90;62.63;100336.92;;;;-48
2021/06/16 04:31:09;;;;;;;3.49;3.14;;;;;;;20.90;62.52;100340.51;;;;-53
2021/06/16 04:34:10;;;;;;;6.43;5.10;;;;;;;20.89;64.34;100335.92;;;;-54
2021/06/16 04:37:10;;;;;;;7.85;6.03;;;;;;;20.88;65.96;100332.37;;;;-53
2021/06/16 04:40:09;;;;;;;8.70;6.70;;;;;;;20.88;67.05;100339.78;;;;-53
2021/06/16 04:43:09;;;;;;;10.55;6.65;;;;;;;20.79;67.38;100337.25;;;;-53
2021/06/16 04:46:09;;;;;;;9.98;6.98;;;;;;;20.79;67.76;100331.21;;;;-52
2021/06/16 04:49:10;;;;;;;7.35;6.54;;;;;;;20.77;68.10;100329.18;;;;-49
2021/06/16 04:52:09;;;;;;;7.79;6.80;;;;;;;20.74;68.61;100331.64;;;;-49
2021/06/16 04:55:09;;;;;;;9.01;7.23;;;;;;;20.73;68.62;100332.44;;;;-49
2021/06/16 04:58:10;;;;;;;11.06;7.33;;;;;;;20.70;68.94;100325.86;;;;-49
2021/06/16 05:01:09;;;;;;;8.70;7.17;;;;;;;20.74;69.08;100327.50;;;;-49
2021/06/16 05:04:10;;;;;;;9.39;7.16;;;;;;;20.68;69.42;100327.41;;;;-49
2021/06/16 05:07:09;;;;;;;8.97;7.06;;;;;;;20.69;69.72;100326.52;;;;-49
2021/06/16 05:10:09;;;;;;;7.83;6.57;;;;;;;20.66;69.60;100323.66;;;;-49
2021/06/16 05:13:10;;;;;;;7.66;6.85;;;;;;;20.65;69.42;100322.61;;;;-51
2021/06/16 05:16:09;;;;;;;8.51;6.22;;;;;;;20.65;69.50;100322.13;;;;-50
2021/06/16 05:19:15;;;;;;;8.42;6.77;;;;;;;20.67;69.20;100326.86;;;;-50
2021/06/16 05:22:09;;;;;;;9.17;6.65;;;;;;;20.65;69.02;100325.14;;;;-50
2021/06/16 05:25:09;;;;;;;7.41;6.63;;;;;;;20.64;69.04;100317.40;;;;-51
2021/06/16 05:28:10;;;;;;;7.55;6.29;;;;;;;20.66;68.85;100320.98;;;;-51
2021/06/16 05:31:10;;;;;;;10.59;6.31;;;;;;;20.66;69.13;100320.64;;;;-51
2021/06/16 05:34:10;;;;;;;7.58;6.24;;;;;;;20.68;69.14;100318.62;;;;-51
2021/06/16 05:37:09;;;;;;;8.59;6.01;;;;;;;20.69;69.34;100319.36;;;;-51
2021/06/16 05:40:09;;;;;;;7.17;6.28;;;;;;;20.71;69.45;100315.27;;;;-51
2021/06/16 05:43:10;;;;;;;8.90;6.34;;;;;;;20.73;70.22;100317.87;;;;-51
2021/06/16 05:46:10;;;;;;;7.89;6.35;;;;;;;20.73;69.55;100318.78;;;;-50
2021/06/16 05:49:10;;;;;;;7.49;5.88;;;;;;;20.75;69.60;100316.98;;;;-50
2021/06/16 05:52:09;;;;;;;9.46;6.17;;;;;;;20.77;69.57;100315.83;;;;-54
2021/06/16 05:55:09;;;;;;;7.50;6.12;;;;;;;20.77;68.88;100313.89;;;;-54
2021/06/16 05:58:09;;;;;;;7.93;6.15;;;;;;;20.79;69.19;100313.95;;;;-50
2021/06/16 06:01:09;;;;;;;7.05;5.77;;;;;;;20.80;68.41;100316.91;;;;-50
2021/06/16 06:04:10;;;;;;;6.17;5.41;;;;;;;20.79;68.10;100319.92;;;;-50
2021/06/16 06:07:09;;;;;;;7.10;5.86;;;;;;;20.80;67.61;100317.70;;;;-50
2021/06/16 06:10:09;;;;;;;6.05;5.41;;;;;;;20.79;67.60;100316.50;;;;-50
2021/06/16 06:13:10;;;;;;;5.55;5.05;;;;;;;20.79;67.48;100318.29;;;;-50
2021/06/16 06:16:10;;;;;;;6.07;5.57;;;;;;;20.80;67.23;100318.77;;;;-50
2021/06/16 06:19:10;;;;;;;6.01;5.31;;;;;;;20.80;67.09;100315.19;;;;-50
2021/06/16 06:22:09;;;;;;;5.99;5.23;;;;;;;20.80;67.00;100318.20;;;;-50
2021/06/16 06:25:09;;;;;;;5.61;5.11;;;;;;;20.79;66.91;100317.69;;;;-50
2021/06/16 06:28:09;;;;;;;8.75;5.76;;;;;;;20.81;67.40;100313.14;;;;-57
2021/06/16 06:31:09;;;;;;;7.60;5.44;;;;;;;20.83;67.26;100314.35;;;;-60
2021/06/16 06:34:09;;;;;;;6.39;5.61;;;;;;;20.83;67.25;100316.06;;;;-58
2021/06/16 06:37:09;;;;;;;5.76;5.17;;;;;;;20.85;67.18;100316.87;;;;-54
2021/06/16 06:40:09;;;;;;;7.13;5.21;;;;;;;20.87;66.96;100316.31;;;;-53
2021/06/16 06:43:09;;;;;;;5.81;5.19;;;;;;;20.89;67.20;100311.98;;;;-53
2021/06/16 06:46:09;;;;;;;6.05;4.89;;;;;;;20.89;66.57;100312.14;;;;-54
2021/06/16 06:49:11;;;;;;;8.47;5.21;;;;;;;20.90;66.56;100309.72;;;;-55
2021/06/16 06:52:09;;;;;;;6.18;4.89;;;;;;;20.89;66.45;100305.70;;;;-53
2021/06/16 06:55:09;;;;;;;6.63;4.95;;;;;;;20.89;66.44;100304.16;;;;-53
2021/06/16 06:58:10;;;;;;;5.52;5.00;;;;;;;20.89;66.45;100301.23;;;;-54
2021/06/16 07:01:09;;;;;;;5.38;4.87;;;;;;;20.88;66.25;100297.58;;;;-54
2021/06/16 07:04:09;;;;;;;5.19;4.73;;;;;;;20.88;66.21;100298.88;;;;-53
2021/06/16 07:07:10;;;;;;;5.65;5.03;;;;;;;20.88;66.12;100298.48;;;;-53
2021/06/16 07:10:09;;;;;;;6.57;4.96;;;;;;;20.87;65.96;100296.09;;;;-54
2021/06/16 07:13:09;;;;;;;5.95;4.73;;;;;;;20.87;65.95;100297.16;;;;-53
2021/06/16 07:16:09;;;;;;;6.09;5.06;;;;;;;20.88;66.17;100297.50;;;;-52
2021/06/16 07:19:09;;;;;;;5.99;4.83;;;;;;;20.89;66.43;100296.50;;;;-48
2021/06/16 07:22:10;;;;;;;5.22;4.72;;;;;;;20.90;66.36;100291.70;;;;-51
2021/06/16 07:25:09;;;;;;;5.36;4.86;;;;;;;20.92;66.36;100292.91;;;;-45
2021/06/16 07:28:09;;;;;;;5.26;4.77;;;;;;;20.93;66.27;100293.08;;;;-47
2021/06/16 07:31:10;;;;;;;7.58;4.83;;;;;;;20.94;66.35;100291.54;;;;-52
2021/06/16 07:34:09;;;;;;;5.23;4.73;;;;;;;20.96;66.41;100285.02;;;;-55
2021/06/16 07:37:10;;;;;;;5.68;4.84;;;;;;;20.98;66.29;100285.83;;;;-56
2021/06/16 07:40:09;;;;;;;6.89;4.68;;;;;;;21.01;66.22;100284.09;;;;-59
2021/06/16 07:43:09;;;;;;;5.86;5.01;;;;;;;21.03;66.25;100285.89;;;;-55
2021/06/16 07:46:09;;;;;;;11.07;4.61;;;;;;;21.04;66.28;100281.39;;;;-49
2021/06/16 07:49:09;;;;;;;6.01;4.61;;;;;;;21.05;66.22;100281.08;;;;-56
2021/06/16 07:52:09;;;;;;;7.26;4.73;;;;;;;21.06;66.26;100277.41;;;;-62
2021/06/16 07:55:09;;;;;;;6.64;4.54;;;;;;;21.08;66.13;100281.46;;;;-54
2021/06/16 07:58:10;;;;;;;6.21;4.63;;;;;;;21.09;66.05;100273.48;;;;-60
2021/06/16 08:01:09;;;;;;;5.66;4.59;;;;;;;21.09;66.12;100271.20;;;;-56
2021/06/16 08:04:09;;;;;;;5.15;4.45;;;;;;;21.12;66.09;100272.08;;;;-52
2021/06/16 08:07:10;;;;;;;5.73;4.74;;;;;;;21.12;66.24;100265.72;;;;-50
2021/06/16 08:10:09;;;;;;;5.07;4.54;;;;;;;21.14;66.01;100264.41;;;;-54
2021/06/16 08:13:09;;;;;;;12.42;4.59;;;;;;;21.15;65.98;100260.52;;;;-59
2021/06/16 08:16:09;;;;;;;5.18;4.37;;;;;;;21.16;66.06;100258.22;;;;-62
2021/06/16 08:19:09;;;;;;;7.14;4.41;;;;;;;21.17;66.12;100256.67;;;;-52
2021/06/16 08:22:09;;;;;;;6.15;4.35;;;;;;;21.18;65.99;100257.48;;;;-57
2021/06/16 08:25:11;;;;;;;4.59;4.18;;;;;;;21.18;65.94;100257.22;;;;-49
2021/06/16 08:28:10;;;;;;;5.46;4.28;;;;;;;21.20;65.95;100254.77;;;;-51
2021/06/16 08:31:09;;;;;;;6.47;4.35;;;;;;;21.21;65.77;100250.95;;;;-51
2021/06/16 08:34:09;;;;;;;5.45;4.35;;;;;;;21.22;65.78;100246.37;;;;-50
2021/06/16 08:37:10;;;;;;;6.03;4.01;;;;;;;21.23;65.87;100247.42;;;;-53
2021/06/16 08:40:09;;;;;;;7.01;4.42;;;;;;;21.23;65.80;100249.08;;;;-51
2021/06/16 08:43:10;;;;;;;7.06;4.24;;;;;;;21.23;65.67;100244.27;;;;-52
2021/06/16 08:46:09;;;;;;;5.12;4.30;;;;;;;21.23;65.69;100242.95;;;;-54
2021/06/16 08:49:09;;;;;;;5.99;4.11;;;;;;;21.25;65.58;100239.18;;;;-60
2021/06/16 08:52:09;;;;;;;6.27;4.13;;;;;;;21.25;65.68;100241.32;;;;-60
2021/06/16 08:55:09;;;;;;;4.63;4.17;;;;;;;21.26;65.70;100236.25;;;;-50
2021/06/16 08:58:09;;;;;;;5.17;4.07;;;;;;;21.27;65.58;100234.20;;;;-51
2021/06/16 09:01:09;;;;;;;5.64;4.11;;;;;;;21.27;65.51;100233.48;;;;-50
2021/06/16 09:04:09;;;;;;;6.13;4.30;;;;;;;21.29;65.42;100236.31;;;;-53
2021/06/16 09:07:09;;;;;;;5.87;4.22;;;;;;;21.30;65.60;100236.23;;;;-49
2021/06/16 09:10:09;;;;;;;6.85;4.17;;;;;;;21.30;65.44;100233.72;;;;-50
2021/06/16 09:13:11;;;;;;;4.84;4.29;;;;;;;21.32;65.68;100235.83;;;;-48
2021/06/16 09:16:09;;;;;;;6.44;4.14;;;;;;;21.31;65.28;100232.39;;;;-45
2021/06/16 09:19:09;;;;;;;6.25;4.08;;;;;;;21.30;65.48;100232.64;;;;-45
2021/06/16 09:22:10;;;;;;;4.82;3.93;;;;;;;21.29;65.34;100227.28;;;;-54
2021/06/16 09:25:09;;;;;;;8.32;4.10;;;;;;;21.31;65.29;100218.70;;;;-52
2021/06/16 09:28:09;;;;;;;10.08;4.43;;;;;;;21.32;65.42;100218.87;;;;-57
2021/06/16 09:31:09;;;;;;;8.81;4.33;;;;;;;21.31;65.39;100215.62;;;;-55
2021/06/16 09:34:09;;;;;;;4.50;3.87;;;;;;;21.32;65.38;100215.20;;;;-52
2021/06/16 09:37:09;;;;;;;7.19;4.20;;;;;;;21.33;65.27;100215.02;;;;-55
2021/06/16 09:40:09;;;;;;;6.55;3.84;;;;;;;21.34;65.33;100221.06;;;;-53
2021/06/16 09:43:09;;;;;;;6.90;3.93;;;;;;;21.35;65.42;100215.58;;;;-51
2021/06/16 09:46:09;;;;;;;4.75;4.02;;;;;;;21.36;65.45;100215.84;;;;-51
2021/06/16 09:49:09;;;;;;;5.30;3.75;;;;;;;21.38;65.30;100216.48;;;;-51
2021/06/16 09:52:09;;;;;;;6.34;3.94;;;;;;;21.37;65.02;100217.84;;;;-53
2021/06/16 09:55:09;;;;;;;4.90;3.89;;;;;;;21.37;65.26;100217.45;;;;-56
2021/06/16 09:58:09;;;;;;;5.76;3.93;;;;;;;21.37;65.22;100214.28;;;;-62
2021/06/16 10:01:09;;;;;;;5.19;3.95;;;;;;;21.38;65.09;100209.47;;;;-52
2021/06/16 10:04:09;;;;;;;7.66;3.79;;;;;;;21.39;65.21;100206.02;;;;-51
2021/06/16 10:07:09;;;;;;;6.37;3.92;;;;;;;21.39;65.12;100201.38;;;;-58
2021/06/16 10:10:09;;;;;;;6.01;3.93;;;;;;;21.40;65.08;100201.47;;;;-57
2021/06/16 10:13:09;;;;;;;5.58;3.65;;;;;;;21.40;65.21;100198.28;;;;-53
2021/06/16 10:16:09;;;;;;;5.97;3.77;;;;;;;21.41;65.13;100199.41;;;;-61
2021/06/16 10:19:09;;;;;;;4.10;3.70;;;;;;;21.43;64.95;100200.91;;;;-51
2021/06/16 10:22:09;;;;;;;8.25;4.01;;;;;;;21.42;65.12;100196.59;;;;-50
2021/06/16 10:25:09;;;;;;;5.89;3.83;;;;;;;21.42;65.04;100191.20;;;;-50
2021/06/16 10:28:09;;;;;;;5.42;3.75;;;;;;;21.43;65.06;100189.23;;;;-53
2021/06/16 10:31:09;;;;;;;6.21;3.81;;;;;;;21.43;65.11;100185.73;;;;-58
2021/06/16 10:34:09;;;;;;;4.13;3.54;;;;;;;21.45;65.05;100186.29;;;;-55
2021/06/16 10:37:09;;;;;;;6.21;3.77;;;;;;;21.46;64.93;100185.38;;;;-48
2021/06/16 10:40:09;;;;;;;5.42;3.55;;;;;;;21.46;64.90;100185.31;;;;-52
2021/06/16 10:44:09;;;;;;;6.47;3.89;;;;;;;21.47;64.96;100181.64;;;;-53
2021/06/16 10:47:10;;;;;;;6.28;3.77;;;;;;;21.47;64.86;100176.16;;;;-58
2021/06/16 10:50:09;;;;;;;4.02;3.51;;;;;;;21.46;64.73;100176.02;;;;-57
2021/06/16 10:53:09;;;;;;;5.95;3.26;;;;;;;21.46;64.81;100171.52;;;;-52
2021/06/16 10:56:09;;;;;;;4.95;3.54;;;;;;;21.45;64.83;100173.50;;;;-57
2021/06/16 10:59:09;;;;;;;5.08;3.49;;;;;;;21.43;64.80;100177.81;;;;-58
2021/06/16 11:02:09;;;;;;;5.42;3.76;;;;;;;21.43;64.71;100167.87;;;;-58
2021/06/16 11:05:09;;;;;;;6.49;3.59;;;;;;;21.42;64.74;100169.94;;;;-57
2021/06/16 11:08:14;;;;;;;6.15;3.63;;;;;;;21.41;64.68;100165.41;;;;-57
2021/06/16 11:11:09;;;;;;;4.12;3.44;;;;;;;21.40;64.63;100162.02;;;;-58
2021/06/16 11:14:09;;;;;;;5.46;3.43;;;;;;;21.40;64.56;100163.72;;;;-58
2021/06/16 11:17:09;;;;;;;4.23;3.29;;;;;;;21.40;64.57;100156.06;;;;-57
2021/06/16 11:20:10;;;;;;;5.89;3.61;;;;;;;21.39;64.57;100155.81;;;;-56
2021/06/16 11:23:09;;;;;;;4.93;3.35;;;;;;;21.39;64.46;100154.28;;;;-56
2021/06/16 11:26:09;;;;;;;3.76;3.26;;;;;;;21.38;64.49;100144.32;;;;-56
2021/06/16 11:29:09;;;;;;;3.88;3.44;;;;;;;21.38;64.50;100149.22;;;;-55
2021/06/16 11:32:09;;;;;;;4.70;3.41;;;;;;;21.37;64.42;100141.30;;;;-52
2021/06/16 11:35:09;;;;;;;4.17;3.29;;;;;;;21.37;64.40;100142.37;;;;-52
2021/06/16 11:38:09;;;;;;;5.51;3.45;;;;;;;21.37;64.37;100138.78;;;;-52
2021/06/16 11:41:10;;;;;;;3.92;3.37;;;;;;;21.36;64.42;100139.13;;;;-52
2021/06/16 11:44:09;;;;;;;4.21;3.33;;;;;;;21.36;64.43;100136.77;;;;-52
2021/06/16 11:47:09;;;;;;;3.79;3.25;;;;;;;21.35;64.31;100129.03;;;;-51
2021/06/16 11:50:10;;;;;;;4.25;3.33;;;;;;;21.35;64.42;100124.85;;;;-52
2021/06/16 11:53:09;;;;;;;3.66;3.17;;;;;;;21.35;64.33;100123.63;;;;-52
2021/06/16 11:56:10;;;;;;;4.00;3.25;;;;;;;21.34;64.27;100122.02;;;;-52
2021/06/16 11:59:09;;;;;;;4.19;3.07;;;;;;;21.34;64.39;100116.64;;;;-52
2021/06/16 12:02:09;;;;;;;4.35;3.13;;;;;;;21.33;64.29;100115.73;;;;-52
2021/06/16 12:05:10;;;;;;;3.55;3.25;;;;;;;21.33;64.25;100115.01;;;;-52
2021/06/16 12:08:09;;;;;;;3.64;3.34;;;;;;;21.32;64.26;100115.68;;;;-58
2021/06/16 12:11:09;;;;;;;3.39;3.09;;;;;;;21.32;64.25;100108.83;;;;-52
2021/06/16 12:14:09;;;;;;;4.41;3.14;;;;;;;21.34;64.33;100104.25;;;;-52
2021/06/16 12:17:09;;;;;;;5.31;3.17;;;;;;;21.35;64.27;100104.56;;;;-54
2021/06/16 12:20:09;;;;;;;3.95;3.00;;;;;;;21.36;64.38;100102.03;;;;-51
2021/06/16 12:23:09;;;;;;;3.73;3.03;;;;;;;21.38;64.47;100105.78;;;;-48
2021/06/16 12:26:09;;;;;;;3.61;3.20;;;;;;;21.38;64.59;100100.64;;;;-58
2021/06/16 12:29:09;;;;;;;3.28;2.96;;;;;;;21.39;64.55;100098.41;;;;-57
2021/06/16 12:32:09;;;;;;;3.58;3.09;;;;;;;21.40;64.50;100094.67;;;;-51
2021/06/16 12:35:12;;;;;;;4.23;3.15;;;;;;;21.42;64.53;100091.34;;;;-58
2021/06/16 12:38:10;;;;;;;4.82;2.94;;;;;;;21.43;64.59;100088.80;;;;-50
2021/06/16 12:41:09;;;;;;;3.59;2.98;;;;;;;21.43;64.65;100086.27;;;;-51
2021/06/16 12:44:09;;;;;;;7.49;2.90;;;;;;;21.44;64.67;100086.61;;;;-51
2021/06/16 12:47:10;;;;;;;4.34;3.09;;;;;;;21.45;64.59;100086.02;;;;-51
2021/06/16 12:50:09;;;;;;;4.00;2.97;;;;;;;21.46;64.52;100081.30;;;;-48
2021/06/16 12:53:09;;;;;;;4.73;3.11;;;;;;;21.46;64.49;100073.05;;;;-50
2021/06/16 12:56:09;;;;;;;3.97;3.01;;;;;;;21.47;64.54;100073.69;;;;-50
2021/06/16 12:59:10;;;;;;;3.57;3.00;;;;;;;21.47;64.53;100071.80;;;;-51
2021/06/16 13:02:09;;;;;;;4.06;2.97;;;;;;;21.49;64.61;100068.95;;;;-52
2021/06/16 13:05:10;;;;;;;4.61;2.84;;;;;;;21.49;64.47;100069.75;;;;-54
2021/06/16 13:08:09;;;;;;;3.23;2.93;;;;;;;21.50;64.46;100063.89;;;;-58
2021/06/16 13:11:09;;;;;;;4.69;3.08;;;;;;;21.51;64.69;100061.59;;;;-60
2021/06/16 13:14:09;;;;;;;9.17;3.21;;;;;;;21.52;64.48;100058.64;;;;-57
2021/06/16 13:17:09;;;;;;;5.26;3.31;;;;;;;21.53;64.74;100057.75;;;;-57
2021/06/16 13:20:09;;;;;;;5.29;3.13;;;;;;;21.53;64.51;100052.86;;;;-59
2021/06/16 13:23:09;;;;;;;4.29;3.01;;;;;;;21.53;64.73;100055.13;;;;-63
2021/06/16 13:26:09;;;;;;;6.53;3.13;;;;;;;21.55;64.65;100059.20;;;;-61
2021/06/16 13:29:11;;;;;;;8.36;3.13;;;;;;;21.56;64.62;100058.45;;;;-48
2021/06/16 13:32:09;;;;;;;13.59;3.31;;;;;;;21.56;64.79;100056.27;;;;-51
2021/06/16 13:35:09;;;;;;;7.61;3.10;;;;;;;21.59;64.67;100052.64;;;;-59
2021/06/16 13:38:09;;;;;;;7.30;3.17;;;;;;;21.60;64.86;100052.38;;;;-52
2021/06/16 13:41:09;;;;;;;8.08;2.99;;;;;;;21.62;64.92;100051.70;;;;-48
2021/06/16 13:44:09;;;;;;;6.39;3.16;;;;;;;21.64;64.96;100047.03;;;;-54
2021/06/16 13:47:09;;;;;;;8.97;3.03;;;;;;;21.65;64.92;100043.61;;;;-52
2021/06/16 13:50:09;;;;;;;6.92;3.15;;;;;;;21.67;64.78;100040.98;;;;-55
2021/06/16 13:53:12;;;;;;;6.66;2.99;;;;;;;21.68;64.92;100047.31;;;;-51
2021/06/16 13:56:10;;;;;;;7.91;3.03;;;;;;;21.70;64.97;100041.84;;;;-52
2021/06/16 13:59:09;;;;;;;11.71;3.21;;;;;;;21.71;64.52;100037.20;;;;-47
2021/06/16 14:02:09;;;;;;;6.01;2.94;;;;;;;21.70;64.49;100031.73;;;;-53
2021/06/16 14:05:09;;;;;;;4.29;2.87;;;;;;;21.68;64.66;100037.22;;;;-54
2021/06/16 14:08:11;;;;;;;7.83;2.96;;;;;;;21.66;64.60;100037.81;;;;-53
2021/06/16 14:11:09;;;;;;;4.82;2.79;;;;;;;21.65;64.67;100036.44;;;;-52
2021/06/16 14:14:09;;;;;;;5.82;2.97;;;;;;;21.64;64.60;100040.77;;;;-52
2021/06/16 14:17:09;;;;;;;7.18;2.94;;;;;;;21.63;64.46;100032.96;;;;-53
2021/06/16 14:20:09;;;;;;;5.91;2.91;;;;;;;21.62;64.51;100029.63;;;;-55
2021/06/16 14:23:11;;;;;;;6.13;3.21;;;;;;;21.61;64.67;100039.89;;;;-57
2021/06/16 14:26:09;;;;;;;6.98;2.86;;;;;;;21.63;64.49;100033.69;;;;-58
2021/06/16 14:29:09;;;;;;;12.48;3.03;;;;;;;21.62;64.70;100026.51;;;;-59
2021/06/16 14:32:10;;;;;;;9.94;3.09;;;;;;;21.63;64.72;100020.80;;;;-54
2021/06/16 14:35:09;;;;;;;6.05;3.00;;;;;;;21.62;64.49;100022.69;;;;-52
2021/06/16 14:38:09;;;;;;;5.37;2.99;;;;;;;21.62;64.65;100020.40;;;;-51
2021/06/16 14:41:09;;;;;;;7.07;2.97;;;;;;;21.61;64.56;100019.12;;;;-51
2021/06/16 14:44:09;;;;;;;7.24;2.88;;;;;;;21.60;64.48;100020.00;;;;-55
2021/06/16 14:47:09;;;;;;;8.06;3.29;;;;;;;21.58;64.40;100017.33;;;;-51
2021/06/16 14:50:09;;;;;;;9.07;3.35;;;;;;;21.58;64.42;100018.65;;;;-51
2021/06/16 14:53:09;;;;;;;7.47;2.77;;;;;;;21.57;64.40;100020.61;;;;-51
2021/06/16 14:56:09;;;;;;;6.51;2.85;;;;;;;21.58;64.45;100017.48;;;;-51
2021/06/16 14:59:09;;;;;;;7.61;2.95;;;;;;;21.58;64.43;100011.70;;;;-61
2021/06/16 15:02:09;;;;;;;4.35;2.68;;;;;;;21.58;64.55;100010.50;;;;-59
2021/06/16 15:05:09;;;;;;;10.10;3.02;;;;;;;21.58;64.47;100010.98;;;;-51
2021/06/16 15:08:09;;;;;;;8.06;2.85;;;;;;;21.59;64.56;100009.66;;;;-52
2021/06/16 15:11:09;;;;;;;7.74;2.82;;;;;;;21.60;64.56;100012.17;;;;-52
2021/06/16 15:14:09;;;;;;;6.19;2.76;;;;;;;21.60;64.56;100012.69;;;;-51
2021/06/16 15:17:09;;;;;;;7.33;3.13;;;;;;;21.62;64.58;100011.92;;;;-48
2021/06/16 15:20:09;;;;;;;5.88;2.91;;;;;;;21.62;64.56;100010.27;;;;-52
2021/06/16 15:23:09;;;;;;;5.04;2.75;;;;;;;21.63;64.63;100009.55;;;;-51
2021/06/16 15:26:09;;;;;;;5.06;2.68;;;;;;;21.64;64.54;100007.17;;;;-48
2021/06/16 15:29:09;;;;;;;4.93;2.65;;;;;;;21.64;64.49;99999.92;;;;-47
2021/06/16 15:32:09;;;;;;;5.33;2.81;;;;;;;21.65;64.47;99996.80;;;;-48
2021/06/16 15:35:09;;;;;;;4.62;2.79;;;;;;;21.66;64.59;99994.42;;;;-50
2021/06/16 15:38:15;;;;;;;5.21;2.84;;;;;;;21.67;64.49;99995.32;;;;-54
2021/06/16 15:41:09;;;;;;;6.56;2.80;;;;;;;21.67;64.61;99990.74;;;;-52
2021/06/16 15:44:09;;;;;;;5.09;2.89;;;;;;;21.67;64.53;99980.06;;;;-51
2021/06/16 15:47:09;;;;;;;4.83;2.83;;;;;;;21.68;64.43;99974.01;;;;-54
2021/06/16 15:50:09;;;;;;;6.07;2.81;;;;;;;21.70;64.40;99973.83;;;;-58
2021/06/16 15:53:09;;;;;;;5.32;2.74;;;;;;;21.69;64.40;99976.20;;;;-59
2021/06/16 15:56:09;;;;;;;4.72;2.59;;;;;;;21.70;64.41;99973.26;;;;-49
2021/06/16 15:59:09;;;;;;;5.05;2.65;;;;;;;21.69;64.39;99971.09;;;;-50
2021/06/16 16:02:10;;;;;;;6.90;2.80;;;;;;;21.70;64.50;99972.84;;;;-50
2021/06/16 16:05:09;;;;;;;3.67;2.49;;;;;;;21.70;64.39;99970.41;;;;-50
2021/06/16 16:08:09;;;;;;;5.53;2.77;;;;;;;21.70;64.19;99967.64;;;;-51
2021/06/16 16:11:09;;;;;;;4.53;2.86;;;;;;;21.68;64.30;99960.55;;;;-50
2021/06/16 16:14:11;;;;;;;4.44;2.68;;;;;;;21.68;64.34;99955.09;;;;-50
2021/06/16 16:17:09;;;;;;;5.02;2.71;;;;;;;21.67;64.37;99954.22;;;;-50
2021/06/16 16:20:11;;;;;;;6.21;2.64;;;;;;;21.66;64.25;99957.47;;;;-50
2021/06/16 16:23:09;;;;;;;5.27;2.93;;;;;;;21.65;64.32;99949.19;;;;-50
2021/06/16 16:26:09;;;;;;;6.63;2.46;;;;;;;21.65;64.30;99949.67;;;;-50
2021/06/16 16:29:09;;;;;;;3.80;2.56;;;;;;;21.63;64.17;99945.77;;;;-50
2021/06/16 16:32:09;;;;;;;5.10;2.71;;;;;;;21.64;64.31;99949.75;;;;-49
2021/06/16 16:35:09;;;;;;;5.46;2.61;;;;;;;21.64;64.30;99949.53;;;;-52
2021/06/16 16:38:09;;;;;;;6.00;2.70;;;;;;;21.65;64.32;99943.16;;;;-53
2021/06/16 16:41:09;;;;;;;4.65;2.55;;;;;;;21.66;64.38;99945.39;;;;-55
2021/06/16 16:44:09;;;;;;;4.75;2.69;;;;;;;21.67;64.43;99942.64;;;;-53